Time;durP1;ratioP1;P1;durP2;ratioP2;P2;SDS_P1;SDS_P2;PMS_P1;PMS_P2;Temp;Humidity;BMP_temperature;BMP_pressure;BME280_temperature;BME280_humidity;BME280_pressure;Samples;Min_cycle;Max_cycle;Signal;HPM_P1;HPM_P2
2023/01/11 05:17:15;;;;;;;14.13;8.52;;;;;;;1.03;100.00;100568.16;5607659;31;303290;-89
2023/01/11 05:20:18;;;;;;;18.52;9.32;;;;;;;0.95;100.00;100549.03;5586365;31;33987;-89
2023/01/11 05:23:21;;;;;;;18.02;10.13;;;;;;;0.92;100.00;100544.72;5584833;31;34501;-88
2023/01/11 05:26:27;;;;;;;18.12;9.48;;;;;;;0.93;100.00;100558.66;5584374;31;34213;-88
2023/01/11 05:29:30;;;;;;;17.05;9.68;;;;;;;1.27;100.00;100550.56;5584163;31;33682;-88
2023/01/11 05:32:33;;;;;;;15.20;9.48;;;;;;;1.56;100.00;100567.72;5586042;31;34275;-87
2023/01/11 05:35:37;;;;;;;14.00;8.88;;;;;;;2.08;100.00;100570.69;5583292;32;34800;-88
2023/01/11 05:38:41;;;;;;;13.52;8.40;;;;;;;2.01;100.00;100574.28;5582862;32;34279;-88
2023/01/11 05:41:44;;;;;;;14.52;9.23;;;;;;;2.10;100.00;100561.06;5582447;31;32901;-88
2023/01/11 05:48:07;;;;;;;17.77;8.90;;;;;;;2.28;100.00;100553.88;5590380;32;36457;-88
2023/01/11 05:51:11;;;;;;;16.17;8.60;;;;;;;2.57;100.00;100539.56;5583091;32;34587;-88
2023/01/11 05:54:13;;;;;;;13.35;8.32;;;;;;;2.54;100.00;100539.56;5582664;31;33945;-88
2023/01/11 05:57:16;;;;;;;13.52;8.70;;;;;;;2.98;100.00;100555.53;5583243;31;33862;-88
2023/01/11 06:00:19;;;;;;;12.32;8.23;;;;;;;2.63;100.00;100555.19;5582328;32;34153;-88
2023/01/11 06:03:27;;;;;;;15.38;8.80;;;;;;;2.48;100.00;100545.78;5586428;31;34480;-89
2023/01/11 06:06:29;;;;;;;13.62;8.68;;;;;;;2.27;100.00;100550.38;5650059;26;32842;-89
2023/01/11 06:09:33;;;;;;;14.57;8.90;;;;;;;1.71;100.00;100547.56;5603822;26;33227;-89
2023/01/11 06:12:35;;;;;;;14.30;8.93;;;;;;;1.37;100.00;100534.78;5605205;26;34887;-87
2023/01/11 06:15:39;;;;;;;17.90;9.30;;;;;;;1.28;100.00;100533.13;5565132;32;34396;-87
2023/01/11 06:18:44;;;;;;;16.20;9.88;;;;;;;1.15;100.00;100540.22;5552570;32;34453;-87
2023/01/11 06:21:47;;;;;;;15.32;9.23;;;;;;;1.08;100.00;100547.22;5558253;32;33468;-87
2023/01/11 06:24:50;;;;;;;16.05;9.55;;;;;;;1.06;100.00;100554.22;5550369;32;33996;-87
2023/01/11 06:27:53;;;;;;;17.42;9.93;;;;;;;1.10;100.00;100553.28;5551649;32;34779;-87
2023/01/11 06:30:57;;;;;;;17.58;9.93;;;;;;;1.12;100.00;100546.34;5548447;32;32634;-87
2023/01/11 06:34:00;;;;;;;16.50;10.02;;;;;;;1.05;100.00;100550.72;5565001;26;34882;-88
2023/01/11 06:37:03;;;;;;;16.42;10.30;;;;;;;0.98;100.00;100545.53;5550333;32;33673;-88
2023/01/11 06:40:06;;;;;;;19.30;11.12;;;;;;;0.97;100.00;100536.84;5540837;32;34043;-88
2023/01/11 06:43:09;;;;;;;18.85;10.23;;;;;;;0.96;100.00;100548.19;5535591;32;33674;-88
2023/01/11 06:46:14;;;;;;;21.15;11.05;;;;;;;1.00;100.00;100562.94;5537483;32;33953;-89
2023/01/11 07:00:22;;;;;;;18.30;10.48;;;;;;;1.11;100.00;100588.12;5542865;32;20110;-85
2023/01/11 07:03:25;;;;;;;17.17;10.43;;;;;;;0.99;100.00;100595.19;5540177;32;33766;-85
2023/01/11 07:06:30;;;;;;;17.75;10.82;;;;;;;1.06;100.00;100589.03;5543131;32;32506;-86
2023/01/11 07:09:33;;;;;;;18.10;10.48;;;;;;;1.00;100.00;100593.44;5541799;32;34216;-85
2023/01/11 07:12:36;;;;;;;18.75;11.02;;;;;;;1.06;100.00;100598.62;5542388;32;34139;-86
2023/01/11 07:15:41;;;;;;;16.25;9.93;;;;;;;1.11;100.00;100602.06;5542180;32;33963;-86
2023/01/11 07:18:44;;;;;;;18.65;10.35;;;;;;;1.21;100.00;100601.12;5550018;32;33775;-85
2023/01/11 07:21:48;;;;;;;18.25;11.18;;;;;;;1.21;100.00;100613.34;5544760;32;34345;-85
2023/01/11 07:24:51;;;;;;;15.65;9.70;;;;;;;1.15;100.00;100614.22;5546355;32;33703;-87
2023/01/11 07:27:59;;;;;;;20.08;10.90;;;;;;;1.11;100.00;100635.19;5541867;32;33759;-86
2023/01/11 07:31:02;;;;;;;16.25;10.23;;;;;;;1.20;100.00;100643.81;5541653;32;34849;-87
2023/01/11 07:34:05;;;;;;;18.42;10.85;;;;;;;1.23;100.00;100644.66;5549015;32;32494;-87
2023/01/11 07:37:08;;;;;;;16.17;10.23;;;;;;;1.19;100.00;100647.31;5539544;32;32901;-86
2023/01/11 07:44:16;;;;;;;20.17;10.27;;;;;;;1.37;100.00;100640.22;4131579;26;20100;-88
2023/01/11 07:47:19;;;;;;;18.52;10.98;;;;;;;1.39;100.00;100641.06;5550228;32;32019;-87
2023/01/11 07:50:22;;;;;;;16.35;10.18;;;;;;;1.48;100.00;100648.88;5547760;32;33815;-86
2023/01/11 07:53:25;;;;;;;17.02;9.88;;;;;;;1.77;100.00;100643.38;5546515;32;34198;-86
2023/01/11 07:56:28;;;;;;;15.93;9.48;;;;;;;1.79;100.00;100632.03;5536224;32;32522;-86
2023/01/11 07:59:31;;;;;;;20.10;10.55;;;;;;;2.04;100.00;100621.31;5537006;32;33968;-85
2023/01/11 08:02:35;;;;;;;17.70;10.18;;;;;;;2.06;100.00;100626.56;5545374;32;34522;-87
2023/01/11 08:05:38;;;;;;;15.70;9.63;;;;;;;2.04;100.00;100628.28;5541799;32;32747;-86
2023/01/11 08:08:42;;;;;;;20.30;9.75;;;;;;;2.05;100.00;100623.06;5552067;32;34418;-87
2023/01/11 08:15:09;;;;;;;14.55;9.05;;;;;;;2.09;100.00;100642.22;5548195;32;34734;-88
2023/01/11 08:18:12;;;;;;;15.85;9.13;;;;;;;2.01;100.00;100643.16;5536027;32;33040;-87
2023/01/11 08:21:16;;;;;;;15.98;9.73;;;;;;;1.99;100.00;100650.16;5559244;32;34485;-88
2023/01/11 08:24:20;;;;;;;13.85;8.85;;;;;;;2.02;100.00;100651.88;5543103;32;33940;-88
2023/01/11 08:27:22;;;;;;;15.45;9.50;;;;;;;2.10;100.00;100636.97;5535208;32;33736;-88
2023/01/11 08:30:26;;;;;;;17.40;9.77;;;;;;;2.10;100.00;100636.97;5546516;32;32808;-90
2023/01/11 09:00:20;;;;;;;15.45;9.63;;;;;;;2.90;100.00;100650.00;988557;26;20359;-89
2023/01/11 09:03:23;;;;;;;;;;;;;;;2.87;100.00;100663.13;5549726;32;33037;-89
2023/01/11 09:10:11;;;;;;;15.20;9.57;;;;;;;3.16;100.00;100661.88;4085584;30;20073;-90
2023/01/11 09:13:14;;;;;;;14.43;9.57;;;;;;;3.35;100.00;100675.59;5543822;32;33763;-85
2023/01/11 09:16:17;;;;;;;17.85;10.05;;;;;;;3.66;100.00;100666.34;5556005;32;35292;-85
2023/01/11 09:19:23;;;;;;;14.68;9.65;;;;;;;3.99;100.00;100663.19;5536498;32;32723;-85
2023/01/11 09:22:26;;;;;;;14.25;9.55;;;;;;;3.87;100.00;100659.88;5534554;32;33313;-87
2023/01/11 09:25:29;;;;;;;15.15;9.07;;;;;;;4.02;100.00;100663.16;5533885;32;32554;-84
2023/01/11 09:28:32;;;;;;;15.35;9.85;;;;;;;3.98;100.00;100662.31;5531144;32;33339;-85
2023/01/11 09:31:35;;;;;;;15.02;10.07;;;;;;;3.74;100.00;100661.88;5548338;32;34148;-87
2023/01/11 09:34:40;;;;;;;16.50;9.35;;;;;;;4.54;100.00;100644.66;5535661;32;32594;-86
2023/01/11 09:37:54;;;;;;;17.42;9.05;;;;;;;6.78;100.00;100636.53;5525629;32;32766;-86
2023/01/11 09:41:08;;;;;;;15.52;9.25;;;;;;;8.16;100.00;100636.50;5539053;32;34559;-86
2023/01/11 09:44:22;;;;;;;15.82;9.18;;;;;;;9.86;100.00;100627.31;5542633;32;34518;-87
2023/01/11 09:47:35;;;;;;;15.10;8.70;;;;;;;11.40;100.00;100628.34;5549209;32;34138;-87
2023/01/11 09:50:42;;;;;;;12.07;8.48;;;;;;;13.96;71.18;100630.66;5549023;32;33960;-86
2023/01/11 09:53:50;;;;;;;12.90;8.52;;;;;;;13.46;69.80;100628.22;5548639;32;33714;-86
2023/01/11 09:57:29;;;;;;;13.98;8.60;;;;;;;15.34;62.79;100634.59;5547998;32;33838;-86
2023/01/11 10:00:43;;;;;;;10.93;8.23;;;;;;;16.87;55.46;100635.81;5547075;32;34234;-87
2023/01/11 10:03:47;;;;;;;11.55;7.85;;;;;;;16.68;51.41;100629.09;5543264;32;34312;-91
2023/01/11 10:07:25;;;;;;;8.95;7.37;;;;;;;19.03;45.75;100615.91;5559079;32;35132;-87
2023/01/11 10:10:50;;;;;;;11.38;7.40;;;;;;;19.87;41.48;100611.62;5549193;32;33911;-87
2023/01/11 10:14:29;;;;;;;10.35;7.57;;;;;;;17.88;42.83;100612.28;5539250;32;32640;-87
2023/01/11 10:18:23;;;;;;;12.05;7.87;;;;;;;14.69;51.46;100603.03;5548332;32;34222;-86
2023/01/11 10:21:54;;;;;;;12.02;7.15;;;;;;;13.21;58.89;100601.16;5552047;32;35274;-89
2023/01/11 10:25:09;;;;;;;10.85;8.00;;;;;;;12.83;63.54;100595.34;5556489;32;34592;-86
2023/01/11 10:28:22;;;;;;;19.10;8.32;;;;;;;11.91;64.66;100592.19;5516437;32;34166;-85
2023/01/11 10:34:59;;;;;;;11.18;7.35;;;;;;;11.27;66.62;100608.66;5544239;32;34036;-86
2023/01/11 10:38:29;;;;;;;14.35;7.75;;;;;;;11.18;71.31;100607.31;5531504;32;33976;-85
2023/01/11 10:41:53;;;;;;;11.05;8.00;;;;;;;11.25;69.82;100615.81;5550748;32;33984;-86
2023/01/11 10:45:05;;;;;;;11.12;7.57;;;;;;;11.08;70.79;100600.72;5550826;32;33651;-86
2023/01/11 10:48:28;;;;;;;10.68;7.60;;;;;;;10.83;73.87;100592.13;5552158;32;34330;-87
2023/01/11 10:51:39;;;;;;;14.48;9.20;;;;;;;10.89;75.07;100594.50;5550592;32;34054;-87
2023/01/11 10:54:45;;;;;;;;;;;;;;;10.97;76.37;100599.41;5553837;32;34441;-90
2023/01/11 10:58:09;;;;;;;9.55;7.30;;;;;;;10.41;74.35;100603.78;5564519;32;35003;-87
2023/01/11 11:01:35;;;;;;;10.07;7.50;;;;;;;10.37;76.58;100608.38;5548379;32;34838;-87
2023/01/11 11:04:57;;;;;;;14.27;8.27;;;;;;;10.21;75.92;100608.19;5536832;32;31933;-88
2023/01/11 11:08:31;;;;;;;10.38;8.02;;;;;;;10.03;76.63;100591.28;5554388;32;34009;-87
2023/01/11 11:11:53;;;;;;;13.95;8.27;;;;;;;9.62;79.64;100600.97;5549650;32;33691;-86
2023/01/11 11:15:09;;;;;;;12.10;8.23;;;;;;;9.53;79.78;100598.69;5539779;32;33569;-87
2023/01/11 11:18:13;;;;;;;19.52;9.63;;;;;;;9.88;80.57;100585.75;5557761;32;34158;-86
2023/01/11 11:21:51;;;;;;;13.70;8.40;;;;;;;9.52;81.91;100574.03;5564293;32;34552;-89
2023/01/11 11:24:59;;;;;;;14.60;8.50;;;;;;;9.84;82.98;100569.13;5520057;32;34961;-88
2023/01/11 11:28:06;;;;;;;10.90;7.60;;;;;;;11.11;71.93;100571.38;5548331;32;34628;-86
2023/01/11 11:31:45;;;;;;;11.10;7.35;;;;;;;12.98;62.28;100557.19;5559214;32;35239;-85
2023/01/11 11:34:51;;;;;;;9.93;7.25;;;;;;;10.90;71.33;100558.19;5562443;32;34283;-85
2023/01/11 11:37:54;;;;;;;11.02;7.10;;;;;;;10.30;74.50;100559.19;5554042;32;33778;-85
2023/01/11 11:41:14;;;;;;;13.13;7.05;;;;;;;9.36;79.09;100555.25;5559992;32;35182;-85
2023/01/11 11:44:32;;;;;;;11.18;7.43;;;;;;;11.07;73.03;100548.56;5557051;32;34775;-86
2023/01/11 11:47:42;;;;;;;11.73;6.60;;;;;;;14.20;57.32;100548.28;5559200;32;33539;-85
2023/01/11 11:52:15;;;;;;;9.10;6.95;;;;;;;13.40;60.55;100546.81;5561144;32;35223;-85
2023/01/11 11:55:27;;;;;;;10.05;6.72;;;;;;;10.77;71.11;100555.28;5561765;32;34212;-85
2023/01/11 11:58:30;;;;;;;12.23;6.60;;;;;;;10.09;74.18;100564.53;5557309;32;36573;-83
2023/01/11 12:01:38;;;;;;;9.65;6.50;;;;;;;10.22;75.78;100560.38;5547816;32;35072;-84
2023/01/11 12:04:48;;;;;;;12.52;6.68;;;;;;;9.33;79.48;100557.16;5549496;32;32650;-85
2023/01/11 12:07:53;;;;;;;12.07;6.78;;;;;;;9.38;79.93;100563.13;5549944;32;33758;-84
2023/01/11 12:11:00;;;;;;;9.02;5.95;;;;;;;9.21;79.27;100556.75;5551803;32;32601;-85
2023/01/11 12:14:16;;;;;;;9.18;5.82;;;;;;;9.19;78.97;100555.09;5558226;32;34037;-85
2023/01/11 12:17:23;;;;;;;11.95;6.18;;;;;;;9.40;76.66;100564.78;5570561;32;35170;-85
2023/01/11 12:20:28;;;;;;;7.10;5.30;;;;;;;8.91;77.06;100551.78;5560600;32;34061;-85
2023/01/11 12:23:31;;;;;;;8.48;5.65;;;;;;;8.77;77.80;100566.41;5556858;32;35375;-85
2023/01/11 12:26:45;;;;;;;8.93;5.65;;;;;;;8.99;76.67;100567.34;5555507;32;34990;-84
2023/01/11 12:29:56;;;;;;;9.77;5.78;;;;;;;8.56;79.73;100557.53;5543565;32;32878;-85
2023/01/11 12:33:09;;;;;;;7.47;5.50;;;;;;;8.82;79.90;100560.09;5555633;32;34233;-85
2023/01/11 12:36:13;;;;;;;10.10;4.87;;;;;;;9.01;79.09;100571.66;5543694;32;34405;-88
2023/01/11 12:39:34;;;;;;;6.90;4.93;;;;;;;8.91;75.78;100570.31;5556458;32;34115;-89
2023/01/11 12:42:59;;;;;;;8.20;5.03;;;;;;;8.43;76.56;100569.47;5558957;32;34359;-85
2023/01/11 12:46:29;;;;;;;5.93;4.72;;;;;;;8.44;77.29;100568.53;5537502;32;34575;-85
2023/01/11 12:49:54;;;;;;;9.98;6.30;;;;;;;8.55;78.47;100570.81;5532501;32;34329;-86
2023/01/11 12:53:39;;;;;;;8.25;4.93;;;;;;;8.43;76.37;100570.31;5552137;32;33930;-83
2023/01/11 12:56:56;;;;;;;9.40;5.20;;;;;;;8.46;74.75;100570.19;5546438;32;33976;-85
2023/01/11 13:00:14;;;;;;;7.12;4.85;;;;;;;8.59;74.07;100564.47;5537475;32;32499;-85
2023/01/11 13:03:32;;;;;;;7.75;5.28;;;;;;;8.28;78.14;100570.88;5535090;32;32588;-84
2023/01/11 13:06:40;;;;;;;9.73;5.15;;;;;;;8.27;77.70;100563.88;5552881;32;34366;-85
2023/01/11 13:09:49;;;;;;;8.00;5.50;;;;;;;8.39;77.59;100555.50;5552279;32;34666;-86
2023/01/11 13:13:04;;;;;;;6.68;5.05;;;;;;;8.50;76.79;100553.31;5547606;32;33762;-82
2023/01/11 13:16:23;;;;;;;7.43;4.57;;;;;;;8.65;87.56;100555.47;5539146;32;35245;-86
2023/01/11 13:19:37;;;;;;;7.43;4.55;;;;;;;8.55;76.33;100557.59;5547915;32;34186;-86
2023/01/11 13:22:48;;;;;;;7.28;4.30;;;;;;;8.54;75.17;100556.72;5535096;32;33954;-86
2023/01/11 13:25:52;;;;;;;5.87;4.57;;;;;;;8.64;75.49;100562.53;5559332;32;34036;-85
2023/01/11 13:29:00;;;;;;;7.70;4.95;;;;;;;8.23;77.98;100558.72;5551439;32;34114;-86
2023/01/11 13:32:07;;;;;;;9.20;5.78;;;;;;;8.11;80.42;100560.94;5548894;32;35255;-85
2023/01/11 13:35:16;;;;;;;10.55;6.35;;;;;;;7.94;83.31;100565.91;5547947;32;34812;-86
2023/01/11 13:38:40;;;;;;;10.07;6.00;;;;;;;7.78;84.81;100573.53;5550637;32;33655;-86
2023/01/11 13:41:51;;;;;;;9.55;6.00;;;;;;;7.80;85.31;100584.88;5535244;32;32774;-86
2023/01/11 13:45:12;;;;;;;7.90;5.73;;;;;;;7.77;86.09;100579.72;5547037;32;33825;-87
2023/01/11 13:48:18;;;;;;;;;;;;;;;7.74;86.15;100581.62;5529925;32;32219;-87
2023/01/11 13:51:37;;;;;;;9.57;5.93;;;;;;;7.58;87.18;100584.78;5553938;32;34378;-86
2023/01/11 13:54:47;;;;;;;11.68;5.75;;;;;;;7.55;87.82;100583.09;5555012;32;35310;-86
2023/01/11 13:58:02;;;;;;;7.72;5.60;;;;;;;7.41;89.36;100580.91;5529597;32;32365;-87
2023/01/11 14:01:13;;;;;;;7.75;5.55;;;;;;;7.29;88.96;100581.31;5543249;32;33933;-87
2023/01/11 14:04:22;;;;;;;9.52;6.18;;;;;;;7.30;89.87;100579.56;5568511;32;35232;-87
2023/01/11 14:07:40;;;;;;;11.57;6.78;;;;;;;7.22;90.45;100587.72;5551658;32;34055;-87
2023/01/11 14:10:54;;;;;;;12.50;6.35;;;;;;;7.17;92.43;100584.34;5539898;32;33273;-88
2023/01/11 14:14:16;;;;;;;10.73;7.03;;;;;;;7.09;93.77;100588.09;5551984;32;32727;-85
2023/01/11 14:17:42;;;;;;;11.32;6.65;;;;;;;7.00;93.48;100581.34;5580381;32;33980;-86
2023/01/11 14:21:00;;;;;;;12.73;6.87;;;;;;;6.94;95.35;100583.34;5583778;32;34619;-86
2023/01/11 14:24:05;;;;;;;13.05;7.30;;;;;;;6.88;95.53;100582.59;5575332;32;34312;-87
2023/01/11 14:27:45;;;;;;;13.98;7.12;;;;;;;6.78;98.54;100575.03;5576985;32;35176;-87
2023/01/11 14:31:27;;;;;;;11.77;7.22;;;;;;;6.66;96.24;100570.97;5574106;32;36041;-86
2023/01/11 14:34:35;;;;;;;13.70;7.35;;;;;;;6.60;97.48;100567.62;5482388;32;32905;-86
2023/01/11 14:37:57;;;;;;;11.30;7.85;;;;;;;6.59;97.73;100565.03;5570232;32;35038;-87
2023/01/11 14:41:29;;;;;;;12.30;7.40;;;;;;;6.44;99.42;100561.94;5540620;32;33778;-87
2023/01/11 14:44:59;;;;;;;11.35;7.22;;;;;;;6.46;99.59;100575.06;5531804;32;34084;-88
2023/01/11 14:48:22;;;;;;;13.43;8.23;;;;;;;6.25;100.00;100573.94;5539520;32;34140;-88
2023/01/11 14:51:51;;;;;;;17.87;8.07;;;;;;;6.10;100.00;100578.72;5528491;32;33928;-86
2023/01/11 14:54:56;;;;;;;13.10;8.52;;;;;;;6.04;100.00;100571.84;5552866;32;33757;-85
2023/01/11 14:58:17;;;;;;;14.85;8.70;;;;;;;5.98;100.00;100573.78;5536500;32;32599;-86
2023/01/11 15:01:19;;;;;;;13.93;8.30;;;;;;;5.91;100.00;100571.31;5552709;32;33833;-86
2023/01/11 15:04:22;;;;;;;15.60;8.88;;;;;;;5.75;100.00;100565.59;5538312;32;33125;-86
2023/01/11 15:07:36;;;;;;;13.43;8.25;;;;;;;5.73;100.00;100569.16;5541659;32;33456;-85
2023/01/11 15:11:04;;;;;;;16.37;9.27;;;;;;;5.79;100.00;100564.59;5561231;32;34120;-85
2023/01/11 15:14:27;;;;;;;14.70;8.48;;;;;;;5.58;100.00;100566.00;5553922;32;34144;-84
2023/01/11 15:21:04;;;;;;;11.50;8.15;;;;;;;5.41;100.00;100563.81;5554600;32;34513;-84
2023/01/11 15:24:22;;;;;;;16.00;8.80;;;;;;;5.37;100.00;100559.53;5573595;32;34036;-86
2023/01/11 15:27:37;;;;;;;14.68;8.93;;;;;;;5.31;100.00;100568.44;5558558;32;33699;-86
2023/01/11 15:30:50;;;;;;;17.33;8.75;;;;;;;5.24;100.00;100574.78;5572762;32;33846;-85
2023/01/11 15:33:53;;;;;;;15.38;9.15;;;;;;;5.15;100.00;100578.47;5571998;32;34656;-84
2023/01/11 15:37:31;;;;;;;15.82;9.55;;;;;;;5.04;100.00;100583.13;5559882;32;33533;-85
2023/01/11 15:40:39;;;;;;;16.73;9.43;;;;;;;4.97;100.00;100575.38;5562355;32;33838;-85
2023/01/11 15:44:04;;;;;;;15.40;9.73;;;;;;;4.93;100.00;100576.34;5563717;32;32438;-85
2023/01/11 15:47:31;;;;;;;14.73;8.80;;;;;;;4.90;100.00;100567.66;5563401;32;33027;-84
2023/01/11 15:51:09;;;;;;;15.27;9.32;;;;;;;4.81;100.00;100569.63;5574820;32;34466;-85
2023/01/11 15:54:20;;;;;;;14.80;9.30;;;;;;;4.72;100.00;100569.81;5571395;32;34800;-84
2023/01/11 15:57:38;;;;;;;19.27;9.60;;;;;;;4.70;100.00;100561.97;5536956;32;33536;-85
2023/01/11 16:01:01;;;;;;;16.70;9.05;;;;;;;4.68;100.00;100574.28;5540091;32;34164;-85
2023/01/11 16:04:27;;;;;;;15.13;9.07;;;;;;;4.64;100.00;100579.63;5538543;32;34164;-85
2023/01/11 16:08:02;;;;;;;15.98;9.38;;;;;;;4.62;100.00;100576.19;5548673;32;33931;-85
2023/01/11 16:11:05;;;;;;;17.70;9.80;;;;;;;4.54;100.00;100579.81;5543277;32;34193;-85
2023/01/11 16:14:45;;;;;;;16.10;9.25;;;;;;;4.44;100.00;100580.94;5541690;32;33084;-85
2023/01/11 16:17:49;;;;;;;14.18;8.68;;;;;;;4.37;100.00;100574.06;5538223;32;34765;-85
2023/01/11 16:21:00;;;;;;;19.77;10.32;;;;;;;4.30;100.00;100565.44;5521649;32;33268;-86
2023/01/11 16:24:08;;;;;;;14.98;9.60;;;;;;;4.16;100.00;100568.34;5533925;32;35074;-85
2023/01/11 16:27:29;;;;;;;17.40;10.15;;;;;;;4.13;100.00;100569.28;5534816;32;33881;-85
2023/01/11 16:30:33;;;;;;;17.92;9.68;;;;;;;4.07;100.00;100558.87;5550149;32;34368;-86
2023/01/11 16:33:36;;;;;;;21.77;10.52;;;;;;;3.99;100.00;100572.19;5544922;32;34719;-85
